DAL204 KJFK-ESSA
Flight info
| Callsign | DAL204 |
|---|---|
| Flight time | N/A |
| Altitude | 37000 |
| Route | GREKI DCT JUDDS DCT MARTN DCT ANCER DCT YBC N875B DORYY/M082F390 DCT 59N050W 62N040W 6330N03000W 6330N02000W 63N010W DCT IPTON/N0479F390 DCT MASEV Z183 LEGPO/N0429F270 Z183 ELTOK |
| Aircraft | A332/H-VGDW/C |
Departure
| Time | N/A |
|---|---|
| Airport | John F. Kennedy International Airport (KJFK) |
Arrival
| Time | 2026-05-05 15:34 |
|---|---|
| Airport | Stockholm-Arlanda Airport (ESSA) |
| Time | Latitude | Longitude | Altitude | Speed | Heading |
|---|---|---|---|---|---|
| 2026-05-05 14:50 | 60.93908 | 8.36001 | 38902 ft | 528 kts | 110° |
| 2026-05-05 14:50 | 60.91561 | 8.50358 | 38900 ft | 531 kts | 110° |
| 2026-05-05 14:51 | 60.89191 | 8.64744 | 38884 ft | 532 kts | 110° |
| 2026-05-05 14:51 | 60.86821 | 8.79022 | 38884 ft | 531 kts | 110° |
| 2026-05-05 14:52 | 60.84421 | 8.93359 | 38876 ft | 532 kts | 111° |
| 2026-05-05 14:52 | 60.82014 | 9.07631 | 38868 ft | 527 kts | 110° |
| 2026-05-05 14:53 | 60.79609 | 9.21777 | 38867 ft | 524 kts | 110° |
| 2026-05-05 14:53 | 60.77197 | 9.35851 | 38861 ft | 524 kts | 111° |
| 2026-05-05 14:54 | 60.74771 | 9.49905 | 38859 ft | 524 kts | 111° |
| 2026-05-05 14:54 | 60.72328 | 9.63952 | 38857 ft | 525 kts | 111° |
| 2026-05-05 14:55 | 60.69860 | 9.78029 | 38858 ft | 528 kts | 111° |
| 2026-05-05 14:55 | 60.67374 | 9.92113 | 38822 ft | 528 kts | 111° |
| 2026-05-05 14:56 | 60.62364 | 10.20178 | 38849 ft | 528 kts | 112° |
| 2026-05-05 14:57 | 60.59835 | 10.34188 | 38845 ft | 526 kts | 112° |
| 2026-05-05 14:57 | 60.57298 | 10.48143 | 38843 ft | 525 kts | 112° |
| 2026-05-05 14:58 | 60.54749 | 10.62052 | 38845 ft | 525 kts | 112° |
| 2026-05-05 14:58 | 60.52185 | 10.75947 | 38845 ft | 525 kts | 113° |
| 2026-05-05 14:59 | 60.49609 | 10.89809 | 38838 ft | 525 kts | 114° |
| 2026-05-05 14:59 | 60.47015 | 11.03657 | 38845 ft | 525 kts | 114° |
| 2026-05-05 15:00 | 60.44854 | 11.15131 | 38851 ft | 525 kts | 114° |
| 2026-05-05 15:00 | 60.41810 | 11.31178 | 38847 ft | 525 kts | 114° |
| 2026-05-05 15:01 | 60.39179 | 11.44945 | 38845 ft | 525 kts | 114° |
| 2026-05-05 15:01 | 60.36962 | 11.56465 | 38842 ft | 525 kts | 114° |
| 2026-05-05 15:02 | 60.34297 | 11.70223 | 38853 ft | 526 kts | 115° |
| 2026-05-05 15:02 | 60.31635 | 11.83873 | 38850 ft | 526 kts | 115° |
| 2026-05-05 15:03 | 60.28923 | 11.97690 | 38850 ft | 526 kts | 115° |
| 2026-05-05 15:03 | 60.26231 | 12.11306 | 38853 ft | 527 kts | 115° |
| 2026-05-05 15:04 | 60.23484 | 12.25104 | 38859 ft | 528 kts | 115° |
| 2026-05-05 15:04 | 60.20733 | 12.38826 | 38859 ft | 530 kts | 115° |
| 2026-05-05 15:05 | 60.17438 | 12.59909 | 38858 ft | 534 kts | 101° |
| 2026-05-05 15:06 | 60.16371 | 12.74680 | 38861 ft | 535 kts | 99° |
| 2026-05-05 15:06 | 60.15456 | 12.89506 | 38855 ft | 535 kts | 98° |
| 2026-05-05 15:07 | 60.14524 | 13.04419 | 38856 ft | 535 kts | 99° |
| 2026-05-05 15:07 | 60.13558 | 13.19215 | 38858 ft | 535 kts | 99° |
| 2026-05-05 15:08 | 60.12568 | 13.33907 | 38861 ft | 535 kts | 99° |
| 2026-05-05 15:08 | 60.11553 | 13.48675 | 38855 ft | 535 kts | 99° |
| 2026-05-05 15:09 | 60.10521 | 13.63459 | 38587 ft | 535 kts | 99° |
| 2026-05-05 15:09 | 60.10000 | 13.70843 | 38334 ft | 535 kts | 99° |
| 2026-05-05 15:09 | 60.09474 | 13.78240 | 38066 ft | 536 kts | 99° |
| 2026-05-05 15:09 | 60.08943 | 13.85640 | 37799 ft | 537 kts | 100° |
| 2026-05-05 15:10 | 60.08407 | 13.93038 | 37539 ft | 537 kts | 100° |
| 2026-05-05 15:10 | 60.07867 | 14.00444 | 37275 ft | 538 kts | 100° |
| 2026-05-05 15:10 | 60.07323 | 14.07856 | 37006 ft | 539 kts | 100° |
| 2026-05-05 15:10 | 60.06773 | 14.15271 | 36758 ft | 539 kts | 101° |
| 2026-05-05 15:11 | 60.06219 | 14.22692 | 36502 ft | 539 kts | 101° |
| 2026-05-05 15:11 | 60.05660 | 14.30125 | 36249 ft | 540 kts | 101° |
| 2026-05-05 15:11 | 60.05096 | 14.37562 | 36006 ft | 541 kts | 101° |
| 2026-05-05 15:11 | 60.04526 | 14.45019 | 35763 ft | 542 kts | 101° |
| 2026-05-05 15:12 | 60.03950 | 14.52474 | 35515 ft | 543 kts | 101° |
| 2026-05-05 15:12 | 60.03369 | 14.59941 | 35266 ft | 544 kts | 102° |
| 2026-05-05 15:12 | 60.02783 | 14.67418 | 35054 ft | 545 kts | 102° |
| 2026-05-05 15:12 | 60.02192 | 14.74899 | 34800 ft | 545 kts | 102° |
| 2026-05-05 15:13 | 60.01595 | 14.82394 | 34170 ft | 548 kts | 102° |
| 2026-05-05 15:13 | 60.00985 | 14.89990 | 33029 ft | 558 kts | 103° |
| 2026-05-05 15:13 | 60.00359 | 14.97703 | 31922 ft | 565 kts | 103° |
| 2026-05-05 15:13 | 59.99723 | 15.05491 | 30815 ft | 571 kts | 104° |
| 2026-05-05 15:14 | 59.99077 | 15.13360 | 29565 ft | 575 kts | 104° |
| 2026-05-05 15:14 | 59.98437 | 15.21152 | 28704 ft | 561 kts | 104° |
| 2026-05-05 15:14 | 59.97807 | 15.28807 | 28028 ft | 556 kts | 104° |
| 2026-05-05 15:14 | 59.97174 | 15.36403 | 27292 ft | 553 kts | 104° |
| 2026-05-05 15:15 | 59.96546 | 15.43856 | 26526 ft | 551 kts | 104° |
| 2026-05-05 15:15 | 59.95907 | 15.51378 | 25786 ft | 549 kts | 104° |
| 2026-05-05 15:15 | 59.95267 | 15.58863 | 25016 ft | 548 kts | 104° |
| 2026-05-05 15:15 | 59.94484 | 15.66257 | 24221 ft | 537 kts | 113° |
| 2026-05-05 15:16 | 59.94417 | 15.66708 | 24184 ft | 536 kts | 114° |
| 2026-05-05 15:16 | 59.93811 | 15.70140 | 23872 ft | 522 kts | 119° |
| 2026-05-05 15:16 | 59.92440 | 15.76675 | 23190 ft | 504 kts | 122° |
| 2026-05-05 15:16 | 59.91005 | 15.83036 | 22478 ft | 500 kts | 122° |
| 2026-05-05 15:17 | 59.89564 | 15.89265 | 21959 ft | 493 kts | 122° |
| 2026-05-05 15:17 | 59.88158 | 15.95283 | 21430 ft | 487 kts | 122° |
| 2026-05-05 15:17 | 59.86699 | 16.01477 | 20822 ft | 481 kts | 122° |
| 2026-05-05 15:17 | 59.85288 | 16.07449 | 20324 ft | 473 kts | 123° |
| 2026-05-05 15:18 | 59.83895 | 16.13320 | 19601 ft | 467 kts | 123° |
| 2026-05-05 15:18 | 59.82506 | 16.19145 | 18962 ft | 464 kts | 122° |
| 2026-05-05 15:18 | 59.81129 | 16.24904 | 18417 ft | 459 kts | 122° |
| 2026-05-05 15:18 | 59.79764 | 16.30602 | 17802 ft | 454 kts | 122° |
| 2026-05-05 15:19 | 59.78415 | 16.36212 | 17270 ft | 446 kts | 121° |
| 2026-05-05 15:19 | 59.77088 | 16.41727 | 16749 ft | 438 kts | 121° |
| 2026-05-05 15:19 | 59.75789 | 16.47107 | 16163 ft | 427 kts | 120° |
| 2026-05-05 15:19 | 59.74517 | 16.52364 | 15405 ft | 419 kts | 120° |
| 2026-05-05 15:20 | 59.73270 | 16.57499 | 14860 ft | 409 kts | 119° |
| 2026-05-05 15:20 | 59.72049 | 16.62515 | 14263 ft | 401 kts | 118° |
| 2026-05-05 15:20 | 59.70840 | 16.67468 | 13643 ft | 395 kts | 118° |
| 2026-05-05 15:20 | 59.69653 | 16.72323 | 12992 ft | 388 kts | 117° |
| 2026-05-05 15:21 | 59.68489 | 16.77076 | 12292 ft | 382 kts | 117° |
| 2026-05-05 15:21 | 59.67338 | 16.81770 | 11605 ft | 376 kts | 117° |
| 2026-05-05 15:21 | 59.66214 | 16.86348 | 11204 ft | 363 kts | 118° |
| 2026-05-05 15:21 | 59.65131 | 16.90758 | 10962 ft | 348 kts | 118° |
| 2026-05-05 15:22 | 59.64093 | 16.94957 | 10741 ft | 333 kts | 118° |
| 2026-05-05 15:22 | 59.63095 | 16.98990 | 10553 ft | 320 kts | 118° |
| 2026-05-05 15:22 | 59.62136 | 17.02861 | 10370 ft | 309 kts | 118° |
| 2026-05-05 15:22 | 59.61198 | 17.06635 | 10142 ft | 303 kts | 117° |
| 2026-05-05 15:23 | 59.60276 | 17.10341 | 9887 ft | 299 kts | 117° |
| 2026-05-05 15:23 | 59.59366 | 17.13990 | 9570 ft | 295 kts | 117° |
| 2026-05-05 15:23 | 59.58460 | 17.17619 | 9209 ft | 294 kts | 118° |
| 2026-05-05 15:23 | 59.57549 | 17.21232 | 8778 ft | 294 kts | 119° |
| 2026-05-05 15:24 | 59.56566 | 17.24686 | 8402 ft | 292 kts | 122° |
| 2026-05-05 15:24 | 59.55525 | 17.28169 | 8055 ft | 291 kts | 122° |
| 2026-05-05 15:24 | 59.54508 | 17.31539 | 7697 ft | 289 kts | 122° |
| 2026-05-05 15:24 | 59.53476 | 17.34942 | 7335 ft | 288 kts | 122° |
| 2026-05-05 15:25 | 59.52446 | 17.38316 | 6993 ft | 286 kts | 122° |
| 2026-05-05 15:25 | 59.51420 | 17.41660 | 6636 ft | 285 kts | 122° |
| 2026-05-05 15:25 | 59.50393 | 17.44992 | 6285 ft | 284 kts | 122° |
| 2026-05-05 15:25 | 59.49369 | 17.48300 | 5913 ft | 283 kts | 122° |
| 2026-05-05 15:26 | 59.48348 | 17.51595 | 5546 ft | 281 kts | 122° |
| 2026-05-05 15:26 | 59.47331 | 17.54867 | 5198 ft | 280 kts | 122° |
| 2026-05-05 15:26 | 59.46316 | 17.58133 | 4819 ft | 279 kts | 122° |
| 2026-05-05 15:26 | 59.45303 | 17.61385 | 4466 ft | 278 kts | 122° |
| 2026-05-05 15:27 | 59.44296 | 17.64609 | 4112 ft | 276 kts | 122° |
| 2026-05-05 15:27 | 59.43293 | 17.67821 | 4020 ft | 276 kts | 122° |
| 2026-05-05 15:27 | 59.42286 | 17.71051 | 4015 ft | 277 kts | 122° |
| 2026-05-05 15:27 | 59.41283 | 17.74257 | 3996 ft | 271 kts | 122° |
| 2026-05-05 15:28 | 59.40324 | 17.77327 | 4014 ft | 257 kts | 122° |
| 2026-05-05 15:28 | 59.39442 | 17.80265 | 3991 ft | 244 kts | 115° |
| 2026-05-05 15:28 | 59.39153 | 17.83418 | 4060 ft | 232 kts | 82° |
| 2026-05-05 15:28 | 59.39709 | 17.86238 | 4047 ft | 214 kts | 49° |
| 2026-05-05 15:29 | 59.40816 | 17.87923 | 4042 ft | 194 kts | 24° |
| 2026-05-05 15:29 | 59.42000 | 17.89129 | 4043 ft | 190 kts | 18° |
| 2026-05-05 15:29 | 59.43258 | 17.89479 | 4048 ft | 181 kts | 347° |
| 2026-05-05 15:29 | 59.44487 | 17.88990 | 4050 ft | 181 kts | 345° |
| 2026-05-05 15:30 | 59.45739 | 17.88711 | 4038 ft | 184 kts | 358° |
| 2026-05-05 15:30 | 59.47000 | 17.89282 | 3896 ft | 187 kts | 14° |
| 2026-05-05 15:30 | 59.48231 | 17.90085 | 3687 ft | 185 kts | 10° |
| 2026-05-05 15:30 | 59.49463 | 17.90669 | 3501 ft | 176 kts | 5° |
| 2026-05-05 15:31 | 59.50648 | 17.90989 | 3155 ft | 168 kts | 0° |
| 2026-05-05 15:31 | 59.51763 | 17.91265 | 2904 ft | 155 kts | 3° |
| 2026-05-05 15:31 | 59.52794 | 17.91588 | 2653 ft | 146 kts | 4° |
| 2026-05-05 15:31 | 59.53787 | 17.91883 | 2318 ft | 142 kts | 3° |
| 2026-05-05 15:32 | 59.54756 | 17.92180 | 2039 ft | 138 kts | 6° |
| 2026-05-05 15:32 | 59.55682 | 17.92541 | 1773 ft | 136 kts | 4° |
| 2026-05-05 15:32 | 59.56610 | 17.92883 | 1562 ft | 136 kts | 5° |
| 2026-05-05 15:32 | 59.57544 | 17.93219 | 1348 ft | 136 kts | 5° |
| 2026-05-05 15:33 | 59.58478 | 17.93569 | 1142 ft | 136 kts | 6° |
| 2026-05-05 15:33 | 59.59403 | 17.93894 | 917 ft | 134 kts | 6° |
| 2026-05-05 15:33 | 59.60325 | 17.94236 | 739 ft | 137 kts | 5° |
| 2026-05-05 15:33 | 59.61256 | 17.94568 | 502 ft | 135 kts | 5° |
| 2026-05-05 15:34 | 59.62175 | 17.94914 | 283 ft | 135 kts | 5° |
| 2026-05-05 15:34 | 59.63098 | 17.95243 | 150 ft | 130 kts | 7° |
| 2026-05-05 15:34 | 59.63826 | 17.95507 | 149 ft | 78 kts | 11° |
| 2026-05-05 15:34 | 59.64178 | 17.95635 | 148 ft | 34 kts | 11° |
| 2026-05-05 15:35 | 59.64405 | 17.95706 | 148 ft | 32 kts | 3° |
| 2026-05-05 15:35 | 59.64622 | 17.95611 | 143 ft | 33 kts | 332° |
| 2026-05-05 15:35 | 59.64718 | 17.95473 | 142 ft | 32 kts | 316° |